sensor_id;sensor_type;location;lat;lon;timestamp;P1;durP1;ratioP1;P2;durP2;ratioP2
19495;SDS011;9888;48.606;9.630;2023-04-15T00:00:57;7.83;;;2.20;;
19495;SDS011;9888;48.606;9.630;2023-04-15T00:03:24;9.40;;;2.63;;
19495;SDS011;9888;48.606;9.630;2023-04-15T00:05:53;9.87;;;2.60;;
19495;SDS011;9888;48.606;9.630;2023-04-15T00:08:20;8.30;;;2.50;;
19495;SDS011;9888;48.606;9.630;2023-04-15T00:10:47;7.80;;;2.60;;
19495;SDS011;9888;48.606;9.630;2023-04-15T00:13:15;9.33;;;2.63;;
19495;SDS011;9888;48.606;9.630;2023-04-15T00:15:43;8.67;;;2.67;;
19495;SDS011;9888;48.606;9.630;2023-04-15T00:18:10;7.73;;;2.70;;
19495;SDS011;9888;48.606;9.630;2023-04-15T00:20:37;8.70;;;2.30;;
19495;SDS011;9888;48.606;9.630;2023-04-15T00:23:06;7.80;;;2.70;;
19495;SDS011;9888;48.606;9.630;2023-04-15T00:25:33;9.10;;;3.50;;
19495;SDS011;9888;48.606;9.630;2023-04-15T00:28:01;8.57;;;2.73;;
19495;SDS011;9888;48.606;9.630;2023-04-15T00:30:29;7.50;;;2.10;;
19495;SDS011;9888;48.606;9.630;2023-04-15T00:32:59;6.93;;;2.50;;
19495;SDS011;9888;48.606;9.630;2023-04-15T00:35:26;7.57;;;2.40;;
19495;SDS011;9888;48.606;9.630;2023-04-15T00:37:53;8.87;;;2.70;;
19495;SDS011;9888;48.606;9.630;2023-04-15T00:40:21;7.40;;;2.23;;
19495;SDS011;9888;48.606;9.630;2023-04-15T00:42:49;6.90;;;2.40;;
19495;SDS011;9888;48.606;9.630;2023-04-15T00:45:17;11.00;;;3.30;;
19495;SDS011;9888;48.606;9.630;2023-04-15T00:47:46;7.70;;;2.93;;
19495;SDS011;9888;48.606;9.630;2023-04-15T00:50:15;7.40;;;2.80;;
19495;SDS011;9888;48.606;9.630;2023-04-15T00:52:42;7.30;;;2.43;;
19495;SDS011;9888;48.606;9.630;2023-04-15T00:55:09;9.40;;;2.90;;
19495;SDS011;9888;48.606;9.630;2023-04-15T00:57:37;8.30;;;2.70;;
19495;SDS011;9888;48.606;9.630;2023-04-15T01:00:06;7.77;;;2.73;;
19495;SDS011;9888;48.606;9.630;2023-04-15T01:02:34;7.00;;;2.37;;
19495;SDS011;9888;48.606;9.630;2023-04-15T01:05:02;7.63;;;2.40;;
19495;SDS011;9888;48.606;9.630;2023-04-15T01:07:48;7.20;;;2.50;;
19495;SDS011;9888;48.606;9.630;2023-04-15T01:10:15;6.37;;;2.30;;
19495;SDS011;9888;48.606;9.630;2023-04-15T01:12:43;14.27;;;2.60;;
19495;SDS011;9888;48.606;9.630;2023-04-15T01:15:11;6.67;;;2.03;;
19495;SDS011;9888;48.606;9.630;2023-04-15T01:17:39;7.00;;;1.90;;
19495;SDS011;9888;48.606;9.630;2023-04-15T01:20:08;8.10;;;2.63;;
19495;SDS011;9888;48.606;9.630;2023-04-15T01:22:37;7.30;;;2.43;;
19495;SDS011;9888;48.606;9.630;2023-04-15T01:25:05;7.20;;;2.17;;
19495;SDS011;9888;48.606;9.630;2023-04-15T01:27:40;7.40;;;2.57;;
19495;SDS011;9888;48.606;9.630;2023-04-15T01:30:09;7.43;;;2.53;;
19495;SDS011;9888;48.606;9.630;2023-04-15T01:32:36;7.77;;;2.50;;
19495;SDS011;9888;48.606;9.630;2023-04-15T01:35:04;7.83;;;2.27;;
19495;SDS011;9888;48.606;9.630;2023-04-15T01:37:32;6.97;;;2.10;;
19495;SDS011;9888;48.606;9.630;2023-04-15T01:40:00;7.83;;;2.77;;
19495;SDS011;9888;48.606;9.630;2023-04-15T01:42:29;8.10;;;2.83;;
19495;SDS011;9888;48.606;9.630;2023-04-15T01:44:58;7.27;;;2.10;;
19495;SDS011;9888;48.606;9.630;2023-04-15T01:47:26;7.30;;;2.40;;
19495;SDS011;9888;48.606;9.630;2023-04-15T01:49:54;8.80;;;2.37;;
19495;SDS011;9888;48.606;9.630;2023-04-15T01:52:21;6.30;;;2.00;;
19495;SDS011;9888;48.606;9.630;2023-04-15T01:54:50;9.43;;;2.23;;
19495;SDS011;9888;48.606;9.630;2023-04-15T01:57:19;7.10;;;2.43;;
19495;SDS011;9888;48.606;9.630;2023-04-15T01:59:47;7.13;;;2.70;;
19495;SDS011;9888;48.606;9.630;2023-04-15T02:02:16;7.87;;;2.47;;
19495;SDS011;9888;48.606;9.630;2023-04-15T02:04:43;8.50;;;2.50;;
19495;SDS011;9888;48.606;9.630;2023-04-15T02:07:11;9.50;;;2.67;;
19495;SDS011;9888;48.606;9.630;2023-04-15T02:09:39;7.27;;;2.60;;
19495;SDS011;9888;48.606;9.630;2023-04-15T02:12:08;7.27;;;2.57;;
19495;SDS011;9888;48.606;9.630;2023-04-15T02:14:36;7.50;;;2.57;;
19495;SDS011;9888;48.606;9.630;2023-04-15T02:17:03;9.83;;;2.83;;
19495;SDS011;9888;48.606;9.630;2023-04-15T02:19:33;8.67;;;2.50;;
19495;SDS011;9888;48.606;9.630;2023-04-15T02:22:01;7.47;;;2.40;;
19495;SDS011;9888;48.606;9.630;2023-04-15T02:24:29;7.73;;;2.57;;
19495;SDS011;9888;48.606;9.630;2023-04-15T02:26:56;9.07;;;2.60;;
19495;SDS011;9888;48.606;9.630;2023-04-15T02:29:24;7.90;;;2.13;;
19495;SDS011;9888;48.606;9.630;2023-04-15T02:31:51;6.73;;;2.37;;
19495;SDS011;9888;48.606;9.630;2023-04-15T02:34:18;8.03;;;2.30;;
19495;SDS011;9888;48.606;9.630;2023-04-15T02:36:45;6.80;;;2.10;;
19495;SDS011;9888;48.606;9.630;2023-04-15T02:39:14;6.60;;;1.87;;
19495;SDS011;9888;48.606;9.630;2023-04-15T02:41:42;9.00;;;2.30;;
19495;SDS011;9888;48.606;9.630;2023-04-15T02:44:16;8.17;;;1.80;;
19495;SDS011;9888;48.606;9.630;2023-04-15T02:46:48;8.60;;;2.30;;
19495;SDS011;9888;48.606;9.630;2023-04-15T02:49:17;9.47;;;2.40;;
19495;SDS011;9888;48.606;9.630;2023-04-15T02:51:44;5.87;;;1.83;;
19495;SDS011;9888;48.606;9.630;2023-04-15T02:54:20;6.37;;;2.00;;
19495;SDS011;9888;48.606;9.630;2023-04-15T02:56:49;7.70;;;2.00;;
19495;SDS011;9888;48.606;9.630;2023-04-15T02:59:19;6.43;;;1.97;;
19495;SDS011;9888;48.606;9.630;2023-04-15T03:01:47;7.40;;;2.13;;
19495;SDS011;9888;48.606;9.630;2023-04-15T03:04:16;10.20;;;2.60;;
19495;SDS011;9888;48.606;9.630;2023-04-15T03:06:43;7.77;;;2.20;;
19495;SDS011;9888;48.606;9.630;2023-04-15T03:09:10;7.17;;;2.23;;
19495;SDS011;9888;48.606;9.630;2023-04-15T03:11:38;8.07;;;2.40;;
19495;SDS011;9888;48.606;9.630;2023-04-15T03:14:06;7.53;;;2.17;;
19495;SDS011;9888;48.606;9.630;2023-04-15T03:16:33;8.73;;;2.10;;
19495;SDS011;9888;48.606;9.630;2023-04-15T03:19:00;11.10;;;2.70;;
19495;SDS011;9888;48.606;9.630;2023-04-15T03:21:28;7.40;;;2.40;;
19495;SDS011;9888;48.606;9.630;2023-04-15T03:23:55;9.93;;;2.17;;
19495;SDS011;9888;48.606;9.630;2023-04-15T03:26:23;6.77;;;2.20;;
19495;SDS011;9888;48.606;9.630;2023-04-15T03:28:54;6.53;;;2.03;;
19495;SDS011;9888;48.606;9.630;2023-04-15T03:31:21;8.10;;;3.00;;
19495;SDS011;9888;48.606;9.630;2023-04-15T03:33:48;8.53;;;2.70;;
19495;SDS011;9888;48.606;9.630;2023-04-15T03:36:16;8.40;;;2.53;;
19495;SDS011;9888;48.606;9.630;2023-04-15T03:38:43;9.77;;;2.53;;
19495;SDS011;9888;48.606;9.630;2023-04-15T03:41:11;7.07;;;2.40;;
19495;SDS011;9888;48.606;9.630;2023-04-15T03:43:38;8.70;;;2.60;;
19495;SDS011;9888;48.606;9.630;2023-04-15T03:46:05;15.03;;;3.80;;
19495;SDS011;9888;48.606;9.630;2023-04-15T03:48:32;14.93;;;3.73;;
19495;SDS011;9888;48.606;9.630;2023-04-15T03:51:00;6.10;;;2.10;;
19495;SDS011;9888;48.606;9.630;2023-04-15T03:53:27;8.43;;;2.33;;
19495;SDS011;9888;48.606;9.630;2023-04-15T03:55:54;6.87;;;2.13;;
19495;SDS011;9888;48.606;9.630;2023-04-15T03:58:21;8.37;;;2.90;;
19495;SDS011;9888;48.606;9.630;2023-04-15T04:00:48;10.43;;;3.10;;
19495;SDS011;9888;48.606;9.630;2023-04-15T04:03:15;7.17;;;2.60;;
19495;SDS011;9888;48.606;9.630;2023-04-15T04:05:42;8.03;;;2.20;;
19495;SDS011;9888;48.606;9.630;2023-04-15T04:08:11;7.27;;;2.67;;
19495;SDS011;9888;48.606;9.630;2023-04-15T04:10:39;7.60;;;2.17;;
19495;SDS011;9888;48.606;9.630;2023-04-15T04:13:07;7.20;;;2.20;;
19495;SDS011;9888;48.606;9.630;2023-04-15T04:15:34;6.73;;;1.97;;
19495;SDS011;9888;48.606;9.630;2023-04-15T04:18:01;8.23;;;2.90;;
19495;SDS011;9888;48.606;9.630;2023-04-15T04:20:28;9.20;;;2.23;;
19495;SDS011;9888;48.606;9.630;2023-04-15T04:22:56;6.67;;;2.30;;
19495;SDS011;9888;48.606;9.630;2023-04-15T04:25:24;8.63;;;2.37;;
19495;SDS011;9888;48.606;9.630;2023-04-15T04:27:51;7.07;;;1.97;;
19495;SDS011;9888;48.606;9.630;2023-04-15T04:30:18;7.73;;;2.20;;
19495;SDS011;9888;48.606;9.630;2023-04-15T04:32:45;8.87;;;2.30;;
19495;SDS011;9888;48.606;9.630;2023-04-15T04:35:12;6.30;;;2.00;;
19495;SDS011;9888;48.606;9.630;2023-04-15T04:37:40;10.67;;;2.30;;
19495;SDS011;9888;48.606;9.630;2023-04-15T04:40:07;7.70;;;2.10;;
19495;SDS011;9888;48.606;9.630;2023-04-15T04:42:35;8.23;;;2.17;;
19495;SDS011;9888;48.606;9.630;2023-04-15T04:45:03;8.30;;;2.60;;
19495;SDS011;9888;48.606;9.630;2023-04-15T04:47:31;9.20;;;2.40;;
19495;SDS011;9888;48.606;9.630;2023-04-15T04:49:58;7.83;;;1.87;;
19495;SDS011;9888;48.606;9.630;2023-04-15T04:52:25;8.43;;;1.63;;
19495;SDS011;9888;48.606;9.630;2023-04-15T04:54:52;6.90;;;2.10;;
19495;SDS011;9888;48.606;9.630;2023-04-15T04:57:20;6.10;;;1.57;;
19495;SDS011;9888;48.606;9.630;2023-04-15T04:59:47;7.63;;;2.53;;
19495;SDS011;9888;48.606;9.630;2023-04-15T05:02:13;16.20;;;2.13;;
19495;SDS011;9888;48.606;9.630;2023-04-15T05:04:41;8.37;;;2.47;;
19495;SDS011;9888;48.606;9.630;2023-04-15T05:07:08;9.07;;;1.90;;
19495;SDS011;9888;48.606;9.630;2023-04-15T05:09:35;6.60;;;1.87;;
19495;SDS011;9888;48.606;9.630;2023-04-15T05:12:05;6.50;;;2.00;;
19495;SDS011;9888;48.606;9.630;2023-04-15T05:14:34;9.10;;;2.07;;
19495;SDS011;9888;48.606;9.630;2023-04-15T05:17:02;6.10;;;1.83;;
19495;SDS011;9888;48.606;9.630;2023-04-15T05:19:29;8.93;;;2.00;;
19495;SDS011;9888;48.606;9.630;2023-04-15T05:21:56;8.10;;;2.37;;
19495;SDS011;9888;48.606;9.630;2023-04-15T05:24:24;6.70;;;2.07;;
19495;SDS011;9888;48.606;9.630;2023-04-15T05:26:50;7.40;;;2.27;;
19495;SDS011;9888;48.606;9.630;2023-04-15T05:29:18;7.10;;;2.27;;
19495;SDS011;9888;48.606;9.630;2023-04-15T05:31:45;8.43;;;2.10;;
19495;SDS011;9888;48.606;9.630;2023-04-15T05:34:12;7.77;;;2.50;;
19495;SDS011;9888;48.606;9.630;2023-04-15T05:36:40;8.97;;;2.30;;
19495;SDS011;9888;48.606;9.630;2023-04-15T05:39:07;8.03;;;2.80;;
19495;SDS011;9888;48.606;9.630;2023-04-15T05:41:34;7.50;;;2.50;;
19495;SDS011;9888;48.606;9.630;2023-04-15T05:44:01;6.90;;;2.50;;
19495;SDS011;9888;48.606;9.630;2023-04-15T05:46:29;17.90;;;2.27;;
19495;SDS011;9888;48.606;9.630;2023-04-15T05:48:55;10.67;;;3.00;;
19495;SDS011;9888;48.606;9.630;2023-04-15T05:51:22;9.60;;;2.13;;
19495;SDS011;9888;48.606;9.630;2023-04-15T05:53:50;7.57;;;2.47;;
19495;SDS011;9888;48.606;9.630;2023-04-15T05:56:18;10.00;;;2.03;;
19495;SDS011;9888;48.606;9.630;2023-04-15T05:58:46;10.20;;;2.43;;
19495;SDS011;9888;48.606;9.630;2023-04-15T06:01:14;11.83;;;3.30;;
19495;SDS011;9888;48.606;9.630;2023-04-15T06:03:42;9.47;;;3.20;;
19495;SDS011;9888;48.606;9.630;2023-04-15T06:06:11;12.63;;;3.60;;
19495;SDS011;9888;48.606;9.630;2023-04-15T06:08:38;9.43;;;3.60;;
19495;SDS011;9888;48.606;9.630;2023-04-15T06:11:06;11.90;;;3.37;;
19495;SDS011;9888;48.606;9.630;2023-04-15T06:13:33;9.20;;;3.60;;
19495;SDS011;9888;48.606;9.630;2023-04-15T06:16:00;9.40;;;3.30;;
19495;SDS011;9888;48.606;9.630;2023-04-15T06:18:27;9.10;;;3.37;;
19495;SDS011;9888;48.606;9.630;2023-04-15T06:20:55;9.63;;;3.50;;
19495;SDS011;9888;48.606;9.630;2023-04-15T06:23:22;8.50;;;3.27;;
19495;SDS011;9888;48.606;9.630;2023-04-15T06:25:49;9.30;;;3.63;;
19495;SDS011;9888;48.606;9.630;2023-04-15T06:28:18;10.90;;;3.53;;
19495;SDS011;9888;48.606;9.630;2023-04-15T06:30:51;10.20;;;3.77;;
19495;SDS011;9888;48.606;9.630;2023-04-15T06:33:19;20.50;;;5.10;;
19495;SDS011;9888;48.606;9.630;2023-04-15T06:35:47;12.30;;;3.77;;
19495;SDS011;9888;48.606;9.630;2023-04-15T06:38:15;13.97;;;4.33;;
19495;SDS011;9888;48.606;9.630;2023-04-15T06:40:43;11.00;;;4.47;;
19495;SDS011;9888;48.606;9.630;2023-04-15T06:43:11;12.80;;;4.23;;
19495;SDS011;9888;48.606;9.630;2023-04-15T06:45:38;18.70;;;4.17;;
19495;SDS011;9888;48.606;9.630;2023-04-15T06:48:09;11.80;;;4.13;;
19495;SDS011;9888;48.606;9.630;2023-04-15T06:50:39;9.90;;;4.03;;
19495;SDS011;9888;48.606;9.630;2023-04-15T06:53:09;11.93;;;4.20;;
19495;SDS011;9888;48.606;9.630;2023-04-15T06:55:37;11.00;;;3.87;;
19495;SDS011;9888;48.606;9.630;2023-04-15T06:58:05;10.30;;;3.83;;
19495;SDS011;9888;48.606;9.630;2023-04-15T07:00:38;10.93;;;3.80;;
19495;SDS011;9888;48.606;9.630;2023-04-15T07:03:07;10.00;;;4.10;;
19495;SDS011;9888;48.606;9.630;2023-04-15T07:05:37;8.83;;;3.67;;
19495;SDS011;9888;48.606;9.630;2023-04-15T07:08:05;9.63;;;3.50;;
19495;SDS011;9888;48.606;9.630;2023-04-15T07:10:34;8.93;;;3.67;;
19495;SDS011;9888;48.606;9.630;2023-04-15T07:13:06;10.70;;;3.80;;
19495;SDS011;9888;48.606;9.630;2023-04-15T07:15:33;9.37;;;3.70;;
19495;SDS011;9888;48.606;9.630;2023-04-15T07:18:01;11.80;;;4.10;;
19495;SDS011;9888;48.606;9.630;2023-04-15T07:20:29;9.70;;;3.67;;
19495;SDS011;9888;48.606;9.630;2023-04-15T07:23:03;9.73;;;3.60;;
19495;SDS011;9888;48.606;9.630;2023-04-15T07:25:31;9.90;;;3.70;;
19495;SDS011;9888;48.606;9.630;2023-04-15T07:28:00;10.07;;;3.47;;
19495;SDS011;9888;48.606;9.630;2023-04-15T07:30:28;11.60;;;3.73;;
19495;SDS011;9888;48.606;9.630;2023-04-15T07:32:59;12.70;;;3.90;;
19495;SDS011;9888;48.606;9.630;2023-04-15T07:35:28;8.93;;;3.70;;
19495;SDS011;9888;48.606;9.630;2023-04-15T07:37:57;10.13;;;3.37;;
19495;SDS011;9888;48.606;9.630;2023-04-15T07:40:28;7.80;;;2.67;;
19495;SDS011;9888;48.606;9.630;2023-04-15T07:42:56;10.40;;;2.40;;
19495;SDS011;9888;48.606;9.630;2023-04-15T07:45:26;8.83;;;2.40;;
19495;SDS011;9888;48.606;9.630;2023-04-15T07:47:54;8.67;;;2.30;;
19495;SDS011;9888;48.606;9.630;2023-04-15T07:50:22;8.63;;;2.30;;
19495;SDS011;9888;48.606;9.630;2023-04-15T07:52:51;10.10;;;2.67;;
19495;SDS011;9888;48.606;9.630;2023-04-15T07:55:22;9.10;;;2.57;;
19495;SDS011;9888;48.606;9.630;2023-04-15T07:57:52;10.50;;;2.87;;
19495;SDS011;9888;48.606;9.630;2023-04-15T08:00:20;11.90;;;3.40;;
19495;SDS011;9888;48.606;9.630;2023-04-15T08:02:48;9.53;;;2.73;;
19495;SDS011;9888;48.606;9.630;2023-04-15T08:05:17;8.83;;;2.80;;
19495;SDS011;9888;48.606;9.630;2023-04-15T08:07:45;7.57;;;2.50;;
19495;SDS011;9888;48.606;9.630;2023-04-15T08:10:13;7.60;;;2.30;;
19495;SDS011;9888;48.606;9.630;2023-04-15T08:12:40;9.50;;;2.53;;
19495;SDS011;9888;48.606;9.630;2023-04-15T08:15:10;8.97;;;2.37;;
19495;SDS011;9888;48.606;9.630;2023-04-15T08:17:39;9.13;;;2.90;;
19495;SDS011;9888;48.606;9.630;2023-04-15T08:20:08;8.47;;;2.40;;
19495;SDS011;9888;48.606;9.630;2023-04-15T08:22:36;8.10;;;2.80;;
19495;SDS011;9888;48.606;9.630;2023-04-15T08:25:04;9.80;;;2.23;;
19495;SDS011;9888;48.606;9.630;2023-04-15T08:27:33;7.30;;;2.47;;
19495;SDS011;9888;48.606;9.630;2023-04-15T08:30:00;8.50;;;2.60;;
19495;SDS011;9888;48.606;9.630;2023-04-15T08:32:28;7.30;;;2.30;;
19495;SDS011;9888;48.606;9.630;2023-04-15T08:34:56;8.73;;;2.80;;
19495;SDS011;9888;48.606;9.630;2023-04-15T08:37:30;8.30;;;2.47;;
19495;SDS011;9888;48.606;9.630;2023-04-15T08:39:57;8.47;;;2.80;;
19495;SDS011;9888;48.606;9.630;2023-04-15T08:42:27;7.80;;;2.63;;
19495;SDS011;9888;48.606;9.630;2023-04-15T08:45:10;9.33;;;2.77;;
19495;SDS011;9888;48.606;9.630;2023-04-15T08:47:38;9.50;;;2.47;;
19495;SDS011;9888;48.606;9.630;2023-04-15T08:50:14;9.20;;;2.40;;
19495;SDS011;9888;48.606;9.630;2023-04-15T08:52:43;8.60;;;2.90;;
19495;SDS011;9888;48.606;9.630;2023-04-15T08:55:11;8.10;;;2.33;;
19495;SDS011;9888;48.606;9.630;2023-04-15T08:57:41;7.33;;;2.60;;
19495;SDS011;9888;48.606;9.630;2023-04-15T09:00:10;9.70;;;2.87;;
19495;SDS011;9888;48.606;9.630;2023-04-15T09:02:54;9.17;;;2.80;;
19495;SDS011;9888;48.606;9.630;2023-04-15T09:05:23;8.57;;;2.40;;
19495;SDS011;9888;48.606;9.630;2023-04-15T09:07:52;8.17;;;2.60;;
19495;SDS011;9888;48.606;9.630;2023-04-15T09:10:22;8.73;;;2.90;;
19495;SDS011;9888;48.606;9.630;2023-04-15T09:12:53;9.70;;;3.20;;
19495;SDS011;9888;48.606;9.630;2023-04-15T09:15:23;8.13;;;3.20;;
19495;SDS011;9888;48.606;9.630;2023-04-15T09:17:53;10.00;;;3.10;;
19495;SDS011;9888;48.606;9.630;2023-04-15T09:20:21;8.60;;;2.80;;
19495;SDS011;9888;48.606;9.630;2023-04-15T09:22:51;9.37;;;3.30;;
19495;SDS011;9888;48.606;9.630;2023-04-15T09:25:30;9.97;;;3.07;;
19495;SDS011;9888;48.606;9.630;2023-04-15T09:28:04;9.23;;;3.43;;
19495;SDS011;9888;48.606;9.630;2023-04-15T09:30:32;7.93;;;2.43;;
19495;SDS011;9888;48.606;9.630;2023-04-15T09:33:02;8.40;;;3.50;;
19495;SDS011;9888;48.606;9.630;2023-04-15T09:35:36;8.23;;;3.27;;
19495;SDS011;9888;48.606;9.630;2023-04-15T09:40:59;8.67;;;3.00;;
19495;SDS011;9888;48.606;9.630;2023-04-15T09:43:39;8.90;;;3.30;;
19495;SDS011;9888;48.606;9.630;2023-04-15T09:46:07;10.23;;;3.60;;
19495;SDS011;9888;48.606;9.630;2023-04-15T09:48:37;8.97;;;3.83;;
19495;SDS011;9888;48.606;9.630;2023-04-15T09:51:05;8.73;;;3.93;;
19495;SDS011;9888;48.606;9.630;2023-04-15T09:53:40;11.17;;;4.10;;
19495;SDS011;9888;48.606;9.630;2023-04-15T09:56:08;9.20;;;3.93;;
19495;SDS011;9888;48.606;9.630;2023-04-15T09:58:37;9.60;;;4.00;;
19495;SDS011;9888;48.606;9.630;2023-04-15T10:01:32;10.33;;;4.10;;
19495;SDS011;9888;48.606;9.630;2023-04-15T10:04:01;9.40;;;4.00;;
19495;SDS011;9888;48.606;9.630;2023-04-15T10:06:29;10.33;;;4.10;;
19495;SDS011;9888;48.606;9.630;2023-04-15T10:08:58;8.20;;;3.43;;
19495;SDS011;9888;48.606;9.630;2023-04-15T10:11:27;9.37;;;4.23;;
19495;SDS011;9888;48.606;9.630;2023-04-15T10:17:15;9.83;;;4.60;;
19495;SDS011;9888;48.606;9.630;2023-04-15T10:19:47;10.13;;;4.20;;
19495;SDS011;9888;48.606;9.630;2023-04-15T10:22:21;11.50;;;4.80;;
19495;SDS011;9888;48.606;9.630;2023-04-15T10:24:57;10.37;;;4.27;;
19495;SDS011;9888;48.606;9.630;2023-04-15T10:30:47;10.77;;;4.10;;
19495;SDS011;9888;48.606;9.630;2023-04-15T10:33:20;9.53;;;4.20;;
19495;SDS011;9888;48.606;9.630;2023-04-15T10:35:51;11.33;;;4.40;;
19495;SDS011;9888;48.606;9.630;2023-04-15T10:43:50;8.77;;;3.60;;
19495;SDS011;9888;48.606;9.630;2023-04-15T10:46:21;8.73;;;3.90;;
19495;SDS011;9888;48.606;9.630;2023-04-15T10:49:07;8.27;;;3.83;;
19495;SDS011;9888;48.606;9.630;2023-04-15T10:51:45;8.50;;;3.73;;
19495;SDS011;9888;48.606;9.630;2023-04-15T10:54:29;8.80;;;3.80;;
19495;SDS011;9888;48.606;9.630;2023-04-15T10:59:58;8.10;;;3.53;;
19495;SDS011;9888;48.606;9.630;2023-04-15T11:05:17;12.43;;;4.20;;
19495;SDS011;9888;48.606;9.630;2023-04-15T11:07:46;11.07;;;3.90;;
19495;SDS011;9888;48.606;9.630;2023-04-15T11:12:57;8.47;;;3.57;;
19495;SDS011;9888;48.606;9.630;2023-04-15T11:20:48;9.73;;;4.10;;
19495;SDS011;9888;48.606;9.630;2023-04-15T11:23:32;8.97;;;4.00;;
19495;SDS011;9888;48.606;9.630;2023-04-15T11:26:11;10.00;;;4.50;;
19495;SDS011;9888;48.606;9.630;2023-04-15T11:28:42;10.00;;;4.50;;
19495;SDS011;9888;48.606;9.630;2023-04-15T11:34:19;10.43;;;4.40;;
19495;SDS011;9888;48.606;9.630;2023-04-15T11:36:36;9.60;;;4.00;;
19495;SDS011;9888;48.606;9.630;2023-04-15T11:39:08;11.87;;;4.43;;
19495;SDS011;9888;48.606;9.630;2023-04-15T22:11:28;17.77;;;4.33;;
19495;SDS011;9888;48.606;9.630;2023-04-15T22:13:57;13.33;;;4.70;;
19495;SDS011;9888;48.606;9.630;2023-04-15T22:16:28;9.70;;;3.90;;
19495;SDS011;9888;48.606;9.630;2023-04-15T22:18:55;10.30;;;4.23;;
19495;SDS011;9888;48.606;9.630;2023-04-15T22:21:23;9.33;;;4.33;;
19495;SDS011;9888;48.606;9.630;2023-04-15T22:27:15;10.47;;;4.57;;
19495;SDS011;9888;48.606;9.630;2023-04-15T22:29:42;10.27;;;4.30;;
19495;SDS011;9888;48.606;9.630;2023-04-15T22:32:10;9.80;;;4.47;;
19495;SDS011;9888;48.606;9.630;2023-04-15T22:34:37;10.03;;;4.37;;
19495;SDS011;9888;48.606;9.630;2023-04-15T22:37:04;33.37;;;5.13;;
19495;SDS011;9888;48.606;9.630;2023-04-15T22:39:32;10.60;;;4.37;;
19495;SDS011;9888;48.606;9.630;2023-04-15T22:41:59;8.63;;;3.80;;
19495;SDS011;9888;48.606;9.630;2023-04-15T22:44:27;9.30;;;3.73;;
19495;SDS011;9888;48.606;9.630;2023-04-15T22:46:54;8.23;;;3.57;;
19495;SDS011;9888;48.606;9.630;2023-04-15T22:49:26;9.33;;;3.80;;
19495;SDS011;9888;48.606;9.630;2023-04-15T22:51:53;10.17;;;4.37;;
19495;SDS011;9888;48.606;9.630;2023-04-15T22:54:20;9.87;;;3.77;;
19495;SDS011;9888;48.606;9.630;2023-04-15T22:56:47;9.03;;;3.40;;
19495;SDS011;9888;48.606;9.630;2023-04-15T22:59:16;7.90;;;3.03;;
19495;SDS011;9888;48.606;9.630;2023-04-15T23:01:43;7.50;;;2.80;;
19495;SDS011;9888;48.606;9.630;2023-04-15T23:04:11;8.97;;;3.43;;
19495;SDS011;9888;48.606;9.630;2023-04-15T23:06:38;8.00;;;3.20;;
19495;SDS011;9888;48.606;9.630;2023-04-15T23:09:05;9.97;;;3.70;;
19495;SDS011;9888;48.606;9.630;2023-04-15T23:11:32;8.77;;;3.27;;
19495;SDS011;9888;48.606;9.630;2023-04-15T23:14:03;7.50;;;2.80;;
19495;SDS011;9888;48.606;9.630;2023-04-15T23:16:34;10.17;;;4.20;;
19495;SDS011;9888;48.606;9.630;2023-04-15T23:19:00;8.60;;;3.73;;
19495;SDS011;9888;48.606;9.630;2023-04-15T23:21:27;26.80;;;5.63;;
19495;SDS011;9888;48.606;9.630;2023-04-15T23:23:56;9.60;;;4.00;;
19495;SDS011;9888;48.606;9.630;2023-04-15T23:29:21;14.07;;;4.07;;
19495;SDS011;9888;48.606;9.630;2023-04-15T23:31:49;8.43;;;3.30;;
19495;SDS011;9888;48.606;9.630;2023-04-15T23:34:16;10.20;;;4.23;;
19495;SDS011;9888;48.606;9.630;2023-04-15T23:36:43;9.37;;;3.70;;
19495;SDS011;9888;48.606;9.630;2023-04-15T23:39:16;12.60;;;4.70;;
19495;SDS011;9888;48.606;9.630;2023-04-15T23:41:43;9.77;;;4.27;;
19495;SDS011;9888;48.606;9.630;2023-04-15T23:44:09;9.57;;;3.73;;
19495;SDS011;9888;48.606;9.630;2023-04-15T23:46:36;22.37;;;4.10;;
19495;SDS011;9888;48.606;9.630;2023-04-15T23:49:03;9.30;;;3.47;;
19495;SDS011;9888;48.606;9.630;2023-04-15T23:51:31;21.97;;;4.40;;
19495;SDS011;9888;48.606;9.630;2023-04-15T23:53:57;9.57;;;3.90;;
19495;SDS011;9888;48.606;9.630;2023-04-15T23:56:24;8.97;;;3.30;;
19495;SDS011;9888;48.606;9.630;2023-04-15T23:58:51;8.23;;;3.10;;
